sensor_id;sensor_type;location;lat;lon;timestamp;P1;durP1;ratioP1;P2;durP2;ratioP2
55288;SDS011;41154;45.394;5.734;2022-07-22T00:01:26;6.28;;;4.45;;
55288;SDS011;41154;45.394;5.734;2022-07-22T00:03:52;5.00;;;4.10;;
55288;SDS011;41154;45.394;5.734;2022-07-22T00:06:17;7.72;;;4.45;;
55288;SDS011;41154;45.394;5.734;2022-07-22T00:08:43;5.03;;;4.30;;
55288;SDS011;41154;45.394;5.734;2022-07-22T00:11:09;6.43;;;4.70;;
55288;SDS011;41154;45.394;5.734;2022-07-22T00:13:35;5.25;;;4.13;;
55288;SDS011;41154;45.394;5.734;2022-07-22T00:16:01;5.63;;;4.50;;
55288;SDS011;41154;45.394;5.734;2022-07-22T00:18:27;4.93;;;4.00;;
55288;SDS011;41154;45.394;5.734;2022-07-22T00:20:53;6.38;;;4.38;;
55288;SDS011;41154;45.394;5.734;2022-07-22T00:23:19;6.07;;;4.05;;
55288;SDS011;41154;45.394;5.734;2022-07-22T00:25:45;4.40;;;4.00;;
55288;SDS011;41154;45.394;5.734;2022-07-22T00:28:11;7.50;;;4.30;;
55288;SDS011;41154;45.394;5.734;2022-07-22T00:30:37;5.22;;;4.20;;
55288;SDS011;41154;45.394;5.734;2022-07-22T00:33:03;5.38;;;4.50;;
55288;SDS011;41154;45.394;5.734;2022-07-22T00:35:29;5.47;;;4.30;;
55288;SDS011;41154;45.394;5.734;2022-07-22T00:37:55;4.43;;;3.95;;
55288;SDS011;41154;45.394;5.734;2022-07-22T00:40:21;5.05;;;3.90;;
55288;SDS011;41154;45.394;5.734;2022-07-22T00:42:47;7.18;;;4.65;;
55288;SDS011;41154;45.394;5.734;2022-07-22T00:45:13;5.47;;;4.80;;
55288;SDS011;41154;45.394;5.734;2022-07-22T00:47:39;6.30;;;4.35;;
55288;SDS011;41154;45.394;5.734;2022-07-22T00:50:05;7.78;;;4.47;;
55288;SDS011;41154;45.394;5.734;2022-07-22T00:52:33;6.55;;;4.30;;
55288;SDS011;41154;45.394;5.734;2022-07-22T00:54:59;7.65;;;4.63;;
55288;SDS011;41154;45.394;5.734;2022-07-22T00:57:26;5.45;;;4.57;;
55288;SDS011;41154;45.394;5.734;2022-07-22T00:59:52;6.80;;;4.85;;
55288;SDS011;41154;45.394;5.734;2022-07-22T01:02:18;6.68;;;4.50;;
55288;SDS011;41154;45.394;5.734;2022-07-22T01:04:44;7.38;;;4.53;;
55288;SDS011;41154;45.394;5.734;2022-07-22T01:07:12;6.50;;;4.32;;
55288;SDS011;41154;45.394;5.734;2022-07-22T01:09:41;5.75;;;4.43;;
55288;SDS011;41154;45.394;5.734;2022-07-22T01:12:11;7.18;;;4.05;;
55288;SDS011;41154;45.394;5.734;2022-07-22T01:14:37;5.60;;;4.30;;
55288;SDS011;41154;45.394;5.734;2022-07-22T01:17:03;7.72;;;4.90;;
55288;SDS011;41154;45.394;5.734;2022-07-22T01:19:29;9.23;;;5.07;;
55288;SDS011;41154;45.394;5.734;2022-07-22T01:21:55;7.82;;;4.63;;
55288;SDS011;41154;45.394;5.734;2022-07-22T01:24:21;7.00;;;4.82;;
55288;SDS011;41154;45.394;5.734;2022-07-22T01:26:47;8.43;;;4.63;;
55288;SDS011;41154;45.394;5.734;2022-07-22T01:29:13;6.15;;;4.55;;
55288;SDS011;41154;45.394;5.734;2022-07-22T01:31:39;5.72;;;4.65;;
55288;SDS011;41154;45.394;5.734;2022-07-22T01:34:05;6.45;;;4.90;;
55288;SDS011;41154;45.394;5.734;2022-07-22T01:36:34;6.00;;;4.40;;
55288;SDS011;41154;45.394;5.734;2022-07-22T01:39:02;7.80;;;4.63;;
55288;SDS011;41154;45.394;5.734;2022-07-22T01:41:28;7.45;;;4.95;;
55288;SDS011;41154;45.394;5.734;2022-07-22T01:43:54;5.35;;;4.70;;
55288;SDS011;41154;45.394;5.734;2022-07-22T01:46:19;9.48;;;5.07;;
55288;SDS011;41154;45.394;5.734;2022-07-22T01:48:49;7.47;;;5.07;;
55288;SDS011;41154;45.394;5.734;2022-07-22T01:51:16;6.38;;;5.07;;
55288;SDS011;41154;45.394;5.734;2022-07-22T01:53:41;7.80;;;5.07;;
55288;SDS011;41154;45.394;5.734;2022-07-22T01:56:07;7.25;;;5.50;;
55288;SDS011;41154;45.394;5.734;2022-07-22T01:58:39;7.28;;;5.03;;
55288;SDS011;41154;45.394;5.734;2022-07-22T02:01:06;7.50;;;5.25;;
55288;SDS011;41154;45.394;5.734;2022-07-22T02:04:00;5.90;;;5.00;;
55288;SDS011;41154;45.394;5.734;2022-07-22T02:06:25;5.20;;;4.40;;
55288;SDS011;41154;45.394;5.734;2022-07-22T02:08:55;7.32;;;4.97;;
55288;SDS011;41154;45.394;5.734;2022-07-22T02:11:44;8.32;;;4.97;;
55288;SDS011;41154;45.394;5.734;2022-07-22T02:14:12;7.40;;;5.20;;
55288;SDS011;41154;45.394;5.734;2022-07-22T02:16:38;7.05;;;4.55;;
55288;SDS011;41154;45.394;5.734;2022-07-22T02:19:04;8.63;;;4.93;;
55288;SDS011;41154;45.394;5.734;2022-07-22T02:21:30;7.20;;;4.60;;
55288;SDS011;41154;45.394;5.734;2022-07-22T02:23:58;11.48;;;4.85;;
55288;SDS011;41154;45.394;5.734;2022-07-22T02:26:24;9.30;;;4.82;;
55288;SDS011;41154;45.394;5.734;2022-07-22T02:28:49;10.48;;;5.28;;
55288;SDS011;41154;45.394;5.734;2022-07-22T02:31:16;6.13;;;4.72;;
55288;SDS011;41154;45.394;5.734;2022-07-22T02:33:41;7.03;;;4.57;;
55288;SDS011;41154;45.394;5.734;2022-07-22T02:36:08;5.30;;;4.68;;
55288;SDS011;41154;45.394;5.734;2022-07-22T02:38:35;9.75;;;5.90;;
55288;SDS011;41154;45.394;5.734;2022-07-22T02:41:01;7.43;;;4.90;;
55288;SDS011;41154;45.394;5.734;2022-07-22T02:43:27;8.45;;;5.00;;
55288;SDS011;41154;45.394;5.734;2022-07-22T02:45:54;6.28;;;5.22;;
55288;SDS011;41154;45.394;5.734;2022-07-22T02:48:19;6.90;;;4.70;;
55288;SDS011;41154;45.394;5.734;2022-07-22T02:50:46;6.53;;;4.50;;
55288;SDS011;41154;45.394;5.734;2022-07-22T02:53:15;6.68;;;4.95;;
55288;SDS011;41154;45.394;5.734;2022-07-22T02:55:41;10.00;;;5.30;;
55288;SDS011;41154;45.394;5.734;2022-07-22T02:58:08;6.72;;;4.95;;
55288;SDS011;41154;45.394;5.734;2022-07-22T03:00:37;7.72;;;5.32;;
55288;SDS011;41154;45.394;5.734;2022-07-22T03:03:03;7.22;;;5.30;;
55288;SDS011;41154;45.394;5.734;2022-07-22T03:05:31;7.38;;;5.28;;
55288;SDS011;41154;45.394;5.734;2022-07-22T03:08:13;5.10;;;4.60;;
55288;SDS011;41154;45.394;5.734;2022-07-22T03:10:39;8.55;;;4.72;;
55288;SDS011;41154;45.394;5.734;2022-07-22T03:13:05;8.02;;;4.90;;
55288;SDS011;41154;45.394;5.734;2022-07-22T03:15:30;6.80;;;4.75;;
55288;SDS011;41154;45.394;5.734;2022-07-22T03:17:56;6.60;;;5.20;;
55288;SDS011;41154;45.394;5.734;2022-07-22T03:20:24;5.95;;;5.35;;
55288;SDS011;41154;45.394;5.734;2022-07-22T03:22:49;5.95;;;4.68;;
55288;SDS011;41154;45.394;5.734;2022-07-22T03:25:15;7.63;;;5.47;;
55288;SDS011;41154;45.394;5.734;2022-07-22T03:27:41;9.90;;;4.93;;
55288;SDS011;41154;45.394;5.734;2022-07-22T03:30:07;8.98;;;5.28;;
55288;SDS011;41154;45.394;5.734;2022-07-22T03:32:37;9.45;;;5.13;;
55288;SDS011;41154;45.394;5.734;2022-07-22T03:35:04;6.75;;;5.03;;
55288;SDS011;41154;45.394;5.734;2022-07-22T03:37:34;6.88;;;5.13;;
55288;SDS011;41154;45.394;5.734;2022-07-22T03:39:59;6.00;;;5.13;;
55288;SDS011;41154;45.394;5.734;2022-07-22T03:42:26;8.73;;;5.35;;
55288;SDS011;41154;45.394;5.734;2022-07-22T03:44:51;7.00;;;5.20;;
55288;SDS011;41154;45.394;5.734;2022-07-22T03:47:19;8.40;;;4.82;;
55288;SDS011;41154;45.394;5.734;2022-07-22T03:49:46;7.53;;;5.00;;
55288;SDS011;41154;45.394;5.734;2022-07-22T03:52:13;9.57;;;5.57;;
55288;SDS011;41154;45.394;5.734;2022-07-22T03:54:40;7.55;;;5.57;;
55288;SDS011;41154;45.394;5.734;2022-07-22T03:57:06;7.32;;;5.35;;
55288;SDS011;41154;45.394;5.734;2022-07-22T03:59:32;7.53;;;4.95;;
55288;SDS011;41154;45.394;5.734;2022-07-22T04:02:01;8.68;;;5.70;;
55288;SDS011;41154;45.394;5.734;2022-07-22T04:04:27;6.78;;;5.38;;
55288;SDS011;41154;45.394;5.734;2022-07-22T04:06:53;5.78;;;5.10;;
55288;SDS011;41154;45.394;5.734;2022-07-22T04:09:25;5.53;;;4.93;;
55288;SDS011;41154;45.394;5.734;2022-07-22T04:11:51;7.32;;;5.20;;
55288;SDS011;41154;45.394;5.734;2022-07-22T04:14:18;8.10;;;5.60;;
55288;SDS011;41154;45.394;5.734;2022-07-22T04:16:45;7.97;;;5.75;;
55288;SDS011;41154;45.394;5.734;2022-07-22T04:19:11;6.82;;;5.45;;
55288;SDS011;41154;45.394;5.734;2022-07-22T04:21:54;7.10;;;5.45;;
55288;SDS011;41154;45.394;5.734;2022-07-22T04:24:24;8.35;;;5.70;;
55288;SDS011;41154;45.394;5.734;2022-07-22T04:26:50;5.72;;;5.13;;
55288;SDS011;41154;45.394;5.734;2022-07-22T04:29:16;6.95;;;5.65;;
55288;SDS011;41154;45.394;5.734;2022-07-22T04:31:42;9.82;;;5.85;;
55288;SDS011;41154;45.394;5.734;2022-07-22T04:34:15;8.43;;;6.47;;
55288;SDS011;41154;45.394;5.734;2022-07-22T04:36:41;7.85;;;6.07;;
55288;SDS011;41154;45.394;5.734;2022-07-22T04:39:07;9.45;;;5.32;;
55288;SDS011;41154;45.394;5.734;2022-07-22T04:41:35;6.93;;;5.28;;
55288;SDS011;41154;45.394;5.734;2022-07-22T04:44:01;6.97;;;5.47;;
55288;SDS011;41154;45.394;5.734;2022-07-22T04:46:29;9.27;;;5.43;;
55288;SDS011;41154;45.394;5.734;2022-07-22T04:48:56;9.38;;;5.50;;
55288;SDS011;41154;45.394;5.734;2022-07-22T04:51:26;6.55;;;5.18;;
55288;SDS011;41154;45.394;5.734;2022-07-22T04:53:59;8.40;;;5.30;;
55288;SDS011;41154;45.394;5.734;2022-07-22T04:56:26;10.27;;;5.72;;
55288;SDS011;41154;45.394;5.734;2022-07-22T04:58:51;9.10;;;5.32;;
55288;SDS011;41154;45.394;5.734;2022-07-22T05:01:18;8.80;;;5.63;;
55288;SDS011;41154;45.394;5.734;2022-07-22T05:03:48;6.18;;;5.50;;
55288;SDS011;41154;45.394;5.734;2022-07-22T05:06:14;8.55;;;5.68;;
55288;SDS011;41154;45.394;5.734;2022-07-22T05:08:42;6.72;;;5.90;;
55288;SDS011;41154;45.394;5.734;2022-07-22T05:11:08;12.38;;;5.60;;
55288;SDS011;41154;45.394;5.734;2022-07-22T05:13:34;9.70;;;6.70;;
55288;SDS011;41154;45.394;5.734;2022-07-22T05:16:04;7.25;;;5.90;;
55288;SDS011;41154;45.394;5.734;2022-07-22T05:18:33;6.78;;;5.55;;
55288;SDS011;41154;45.394;5.734;2022-07-22T05:21:00;8.35;;;5.60;;
55288;SDS011;41154;45.394;5.734;2022-07-22T05:23:27;7.63;;;5.43;;
55288;SDS011;41154;45.394;5.734;2022-07-22T05:25:53;7.50;;;5.05;;
55288;SDS011;41154;45.394;5.734;2022-07-22T05:28:19;6.70;;;4.85;;
55288;SDS011;41154;45.394;5.734;2022-07-22T05:30:46;6.57;;;5.10;;
55288;SDS011;41154;45.394;5.734;2022-07-22T05:33:13;6.15;;;4.63;;
55288;SDS011;41154;45.394;5.734;2022-07-22T05:35:59;8.27;;;4.90;;
55288;SDS011;41154;45.394;5.734;2022-07-22T05:38:32;11.88;;;5.28;;
55288;SDS011;41154;45.394;5.734;2022-07-22T05:40:59;6.88;;;4.85;;
55288;SDS011;41154;45.394;5.734;2022-07-22T05:43:24;5.38;;;4.88;;
55288;SDS011;41154;45.394;5.734;2022-07-22T05:45:51;6.60;;;4.60;;
55288;SDS011;41154;45.394;5.734;2022-07-22T05:48:19;6.15;;;5.40;;
55288;SDS011;41154;45.394;5.734;2022-07-22T05:50:45;6.63;;;4.53;;
55288;SDS011;41154;45.394;5.734;2022-07-22T05:53:12;5.45;;;4.75;;
55288;SDS011;41154;45.394;5.734;2022-07-22T05:55:38;7.55;;;4.85;;
55288;SDS011;41154;45.394;5.734;2022-07-22T05:58:04;9.50;;;4.80;;
55288;SDS011;41154;45.394;5.734;2022-07-22T06:00:30;7.45;;;5.20;;
55288;SDS011;41154;45.394;5.734;2022-07-22T06:02:56;6.70;;;5.05;;
55288;SDS011;41154;45.394;5.734;2022-07-22T06:05:22;8.55;;;5.35;;
55288;SDS011;41154;45.394;5.734;2022-07-22T06:07:48;7.28;;;4.78;;
55288;SDS011;41154;45.394;5.734;2022-07-22T06:10:27;11.32;;;5.45;;
55288;SDS011;41154;45.394;5.734;2022-07-22T06:12:53;11.73;;;5.13;;
55288;SDS011;41154;45.394;5.734;2022-07-22T06:15:20;8.93;;;5.40;;
55288;SDS011;41154;45.394;5.734;2022-07-22T06:17:50;7.65;;;5.15;;
55288;SDS011;41154;45.394;5.734;2022-07-22T06:20:17;13.10;;;5.65;;
55288;SDS011;41154;45.394;5.734;2022-07-22T06:22:43;14.40;;;5.20;;
55288;SDS011;41154;45.394;5.734;2022-07-22T06:25:09;10.20;;;5.30;;
55288;SDS011;41154;45.394;5.734;2022-07-22T06:27:35;11.18;;;5.15;;
55288;SDS011;41154;45.394;5.734;2022-07-22T06:30:02;10.07;;;5.07;;
55288;SDS011;41154;45.394;5.734;2022-07-22T06:32:29;7.60;;;5.18;;
55288;SDS011;41154;45.394;5.734;2022-07-22T06:34:55;7.95;;;5.43;;
55288;SDS011;41154;45.394;5.734;2022-07-22T06:37:20;12.18;;;5.20;;
55288;SDS011;41154;45.394;5.734;2022-07-22T06:39:46;9.18;;;5.00;;
55288;SDS011;41154;45.394;5.734;2022-07-22T06:42:19;6.53;;;5.10;;
55288;SDS011;41154;45.394;5.734;2022-07-22T06:45:10;9.07;;;5.13;;
55288;SDS011;41154;45.394;5.734;2022-07-22T06:47:54;10.70;;;5.07;;
55288;SDS011;41154;45.394;5.734;2022-07-22T06:50:22;8.00;;;5.07;;
55288;SDS011;41154;45.394;5.734;2022-07-22T06:52:47;5.70;;;4.80;;
55288;SDS011;41154;45.394;5.734;2022-07-22T06:55:14;12.25;;;4.65;;
55288;SDS011;41154;45.394;5.734;2022-07-22T06:57:47;7.43;;;4.90;;
55288;SDS011;41154;45.394;5.734;2022-07-22T07:00:15;9.40;;;4.43;;
55288;SDS011;41154;45.394;5.734;2022-07-22T07:03:03;5.85;;;4.55;;
55288;SDS011;41154;45.394;5.734;2022-07-22T07:05:30;5.65;;;4.20;;
55288;SDS011;41154;45.394;5.734;2022-07-22T07:07:56;4.63;;;4.13;;
55288;SDS011;41154;45.394;5.734;2022-07-22T07:10:22;6.70;;;4.03;;
55288;SDS011;41154;45.394;5.734;2022-07-22T07:12:57;5.85;;;4.28;;
55288;SDS011;41154;45.394;5.734;2022-07-22T07:15:37;5.63;;;3.97;;
55288;SDS011;41154;45.394;5.734;2022-07-22T07:18:07;4.50;;;3.83;;
55288;SDS011;41154;45.394;5.734;2022-07-22T07:20:36;4.25;;;3.80;;
55288;SDS011;41154;45.394;5.734;2022-07-22T07:23:03;4.50;;;4.00;;
55288;SDS011;41154;45.394;5.734;2022-07-22T07:25:33;4.55;;;3.92;;
55288;SDS011;41154;45.394;5.734;2022-07-22T07:28:00;4.63;;;4.03;;
55288;SDS011;41154;45.394;5.734;2022-07-22T07:30:43;5.95;;;3.92;;
55288;SDS011;41154;45.394;5.734;2022-07-22T07:33:09;4.03;;;3.70;;
55288;SDS011;41154;45.394;5.734;2022-07-22T07:35:35;5.22;;;4.00;;
55288;SDS011;41154;45.394;5.734;2022-07-22T07:38:04;5.05;;;3.88;;
55288;SDS011;41154;45.394;5.734;2022-07-22T07:40:31;4.40;;;4.00;;
55288;SDS011;41154;45.394;5.734;2022-07-22T07:42:57;4.75;;;3.65;;
55288;SDS011;41154;45.394;5.734;2022-07-22T07:45:23;6.28;;;3.90;;
55288;SDS011;41154;45.394;5.734;2022-07-22T07:47:49;4.03;;;3.63;;
55288;SDS011;41154;45.394;5.734;2022-07-22T07:50:15;5.53;;;3.80;;
55288;SDS011;41154;45.394;5.734;2022-07-22T07:52:41;4.68;;;3.83;;
55288;SDS011;41154;45.394;5.734;2022-07-22T07:55:09;4.68;;;4.00;;
55288;SDS011;41154;45.394;5.734;2022-07-22T07:57:37;6.95;;;3.88;;
55288;SDS011;41154;45.394;5.734;2022-07-22T08:00:09;4.53;;;3.53;;
55288;SDS011;41154;45.394;5.734;2022-07-22T08:02:39;4.40;;;3.78;;
55288;SDS011;41154;45.394;5.734;2022-07-22T08:05:08;5.88;;;3.70;;
55288;SDS011;41154;45.394;5.734;2022-07-22T08:07:35;5.05;;;3.95;;
55288;SDS011;41154;45.394;5.734;2022-07-22T08:10:02;5.03;;;3.78;;
55288;SDS011;41154;45.394;5.734;2022-07-22T08:12:48;5.20;;;3.60;;
55288;SDS011;41154;45.394;5.734;2022-07-22T08:15:31;4.93;;;3.58;;
55288;SDS011;41154;45.394;5.734;2022-07-22T08:18:04;4.88;;;3.88;;
55288;SDS011;41154;45.394;5.734;2022-07-22T08:20:30;4.13;;;3.72;;
55288;SDS011;41154;45.394;5.734;2022-07-22T08:22:56;5.18;;;3.80;;
55288;SDS011;41154;45.394;5.734;2022-07-22T08:25:24;4.63;;;3.90;;
55288;SDS011;41154;45.394;5.734;2022-07-22T08:27:51;5.28;;;3.90;;
55288;SDS011;41154;45.394;5.734;2022-07-22T08:30:17;4.45;;;3.75;;
55288;SDS011;41154;45.394;5.734;2022-07-22T08:32:43;4.10;;;3.53;;
55288;SDS011;41154;45.394;5.734;2022-07-22T08:35:10;4.22;;;3.80;;
55288;SDS011;41154;45.394;5.734;2022-07-22T08:37:36;4.57;;;3.50;;
55288;SDS011;41154;45.394;5.734;2022-07-22T08:40:03;4.25;;;3.83;;
55288;SDS011;41154;45.394;5.734;2022-07-22T08:42:31;5.95;;;3.58;;
55288;SDS011;41154;45.394;5.734;2022-07-22T08:45:02;6.10;;;3.70;;
55288;SDS011;41154;45.394;5.734;2022-07-22T08:47:28;5.15;;;4.05;;
55288;SDS011;41154;45.394;5.734;2022-07-22T08:50:24;4.40;;;3.78;;
55288;SDS011;41154;45.394;5.734;2022-07-22T08:52:55;4.65;;;3.90;;
55288;SDS011;41154;45.394;5.734;2022-07-22T08:55:20;5.88;;;3.95;;
55288;SDS011;41154;45.394;5.734;2022-07-22T08:57:48;5.47;;;3.75;;
55288;SDS011;41154;45.394;5.734;2022-07-22T09:00:16;5.07;;;3.70;;
55288;SDS011;41154;45.394;5.734;2022-07-22T09:02:43;4.57;;;3.83;;
55288;SDS011;41154;45.394;5.734;2022-07-22T09:05:12;7.20;;;3.88;;
55288;SDS011;41154;45.394;5.734;2022-07-22T09:07:41;4.70;;;3.50;;
55288;SDS011;41154;45.394;5.734;2022-07-22T09:10:32;4.13;;;3.67;;
55288;SDS011;41154;45.394;5.734;2022-07-22T09:13:20;6.45;;;3.65;;
55288;SDS011;41154;45.394;5.734;2022-07-22T09:15:52;4.22;;;3.67;;
55288;SDS011;41154;45.394;5.734;2022-07-22T09:18:46;4.80;;;4.05;;
55288;SDS011;41154;45.394;5.734;2022-07-22T09:21:37;3.90;;;3.50;;
55288;SDS011;41154;45.394;5.734;2022-07-22T09:26:55;4.30;;;3.90;;
55288;SDS011;41154;45.394;5.734;2022-07-22T09:29:27;4.00;;;3.58;;
55288;SDS011;41154;45.394;5.734;2022-07-22T09:32:08;4.55;;;3.50;;
55288;SDS011;41154;45.394;5.734;2022-07-22T09:35:07;7.75;;;3.90;;
55288;SDS011;41154;45.394;5.734;2022-07-22T09:37:58;5.75;;;3.50;;
55288;SDS011;41154;45.394;5.734;2022-07-22T09:40:26;6.35;;;4.18;;
55288;SDS011;41154;45.394;5.734;2022-07-22T09:42:56;5.93;;;3.90;;
55288;SDS011;41154;45.394;5.734;2022-07-22T09:45:27;4.88;;;4.10;;
55288;SDS011;41154;45.394;5.734;2022-07-22T09:47:56;4.43;;;3.90;;
55288;SDS011;41154;45.394;5.734;2022-07-22T09:50:41;4.47;;;3.97;;
55288;SDS011;41154;45.394;5.734;2022-07-22T09:53:46;5.57;;;4.00;;
55288;SDS011;41154;45.394;5.734;2022-07-22T09:56:15;6.75;;;4.00;;
55288;SDS011;41154;45.394;5.734;2022-07-22T09:58:42;4.63;;;4.20;;
55288;SDS011;41154;45.394;5.734;2022-07-22T10:01:14;7.57;;;4.03;;
55288;SDS011;41154;45.394;5.734;2022-07-22T10:03:42;5.15;;;4.38;;
55288;SDS011;41154;45.394;5.734;2022-07-22T10:06:13;4.55;;;4.15;;
55288;SDS011;41154;45.394;5.734;2022-07-22T10:08:39;4.68;;;3.85;;
55288;SDS011;41154;45.394;5.734;2022-07-22T10:11:06;4.45;;;4.03;;
55288;SDS011;41154;45.394;5.734;2022-07-22T10:13:33;5.72;;;4.50;;
55288;SDS011;41154;45.394;5.734;2022-07-22T10:16:03;4.65;;;3.95;;
55288;SDS011;41154;45.394;5.734;2022-07-22T10:18:30;5.25;;;4.05;;
55288;SDS011;41154;45.394;5.734;2022-07-22T10:21:04;4.70;;;3.88;;
55288;SDS011;41154;45.394;5.734;2022-07-22T10:23:32;4.40;;;4.00;;
55288;SDS011;41154;45.394;5.734;2022-07-22T10:25:59;4.38;;;3.97;;
55288;SDS011;41154;45.394;5.734;2022-07-22T10:28:32;5.72;;;4.25;;
55288;SDS011;41154;45.394;5.734;2022-07-22T10:33:52;4.57;;;4.10;;
55288;SDS011;41154;45.394;5.734;2022-07-22T10:36:29;4.57;;;4.15;;
55288;SDS011;41154;45.394;5.734;2022-07-22T10:39:02;5.30;;;4.20;;
55288;SDS011;41154;45.394;5.734;2022-07-22T10:44:05;6.72;;;4.43;;
55288;SDS011;41154;45.394;5.734;2022-07-22T10:49:17;4.90;;;4.20;;
55288;SDS011;41154;45.394;5.734;2022-07-22T10:54:32;4.07;;;3.67;;
55288;SDS011;41154;45.394;5.734;2022-07-22T10:56:59;5.25;;;4.38;;
55288;SDS011;41154;45.394;5.734;2022-07-22T10:59:25;7.25;;;4.10;;
55288;SDS011;41154;45.394;5.734;2022-07-22T11:01:51;6.00;;;4.15;;
55288;SDS011;41154;45.394;5.734;2022-07-22T11:04:20;5.18;;;4.28;;
55288;SDS011;41154;45.394;5.734;2022-07-22T11:06:49;4.88;;;4.10;;
55288;SDS011;41154;45.394;5.734;2022-07-22T11:09:20;5.43;;;4.22;;
55288;SDS011;41154;45.394;5.734;2022-07-22T11:14:31;7.25;;;3.83;;
55288;SDS011;41154;45.394;5.734;2022-07-22T11:16:59;6.78;;;4.10;;
55288;SDS011;41154;45.394;5.734;2022-07-22T11:19:33;6.35;;;4.40;;
55288;SDS011;41154;45.394;5.734;2022-07-22T11:22:06;5.90;;;4.75;;
55288;SDS011;41154;45.394;5.734;2022-07-22T11:24:34;5.60;;;4.05;;
55288;SDS011;41154;45.394;5.734;2022-07-22T11:27:01;5.10;;;4.30;;
55288;SDS011;41154;45.394;5.734;2022-07-22T11:32:06;5.75;;;4.45;;
55288;SDS011;41154;45.394;5.734;2022-07-22T11:34:35;5.78;;;4.25;;
55288;SDS011;41154;45.394;5.734;2022-07-22T11:37:02;6.53;;;4.38;;
55288;SDS011;41154;45.394;5.734;2022-07-22T11:39:29;5.88;;;4.13;;
55288;SDS011;41154;45.394;5.734;2022-07-22T11:41:57;6.22;;;4.88;;
55288;SDS011;41154;45.394;5.734;2022-07-22T11:44:26;4.88;;;4.35;;
55288;SDS011;41154;45.394;5.734;2022-07-22T11:46:54;9.07;;;4.60;;
55288;SDS011;41154;45.394;5.734;2022-07-22T11:49:24;6.47;;;4.28;;
55288;SDS011;41154;45.394;5.734;2022-07-22T11:51:50;6.78;;;4.55;;
55288;SDS011;41154;45.394;5.734;2022-07-22T11:54:17;5.03;;;4.05;;
55288;SDS011;41154;45.394;5.734;2022-07-22T11:56:43;6.60;;;4.63;;
55288;SDS011;41154;45.394;5.734;2022-07-22T11:59:12;8.68;;;4.35;;
55288;SDS011;41154;45.394;5.734;2022-07-22T12:01:40;5.13;;;3.92;;
55288;SDS011;41154;45.394;5.734;2022-07-22T12:04:09;4.93;;;4.00;;
55288;SDS011;41154;45.394;5.734;2022-07-22T12:06:46;4.85;;;3.97;;
55288;SDS011;41154;45.394;5.734;2022-07-22T12:09:16;5.35;;;4.60;;
55288;SDS011;41154;45.394;5.734;2022-07-22T12:11:46;5.80;;;4.70;;
55288;SDS011;41154;45.394;5.734;2022-07-22T12:14:18;4.57;;;4.05;;
55288;SDS011;41154;45.394;5.734;2022-07-22T12:16:59;5.65;;;4.00;;
55288;SDS011;41154;45.394;5.734;2022-07-22T12:19:26;5.65;;;4.50;;
55288;SDS011;41154;45.394;5.734;2022-07-22T12:21:59;6.07;;;4.38;;
55288;SDS011;41154;45.394;5.734;2022-07-22T12:24:30;5.20;;;4.70;;
55288;SDS011;41154;45.394;5.734;2022-07-22T12:27:01;4.57;;;4.15;;
55288;SDS011;41154;45.394;5.734;2022-07-22T12:32:03;7.97;;;4.53;;
55288;SDS011;41154;45.394;5.734;2022-07-22T12:34:47;4.40;;;4.00;;
55288;SDS011;41154;45.394;5.734;2022-07-22T12:37:23;6.43;;;4.47;;
55288;SDS011;41154;45.394;5.734;2022-07-22T12:42:40;6.28;;;4.38;;
55288;SDS011;41154;45.394;5.734;2022-07-22T12:45:17;6.43;;;4.50;;
55288;SDS011;41154;45.394;5.734;2022-07-22T12:50:30;5.93;;;4.47;;
55288;SDS011;41154;45.394;5.734;2022-07-22T12:52:59;4.50;;;4.10;;
55288;SDS011;41154;45.394;5.734;2022-07-22T12:55:36;7.30;;;4.30;;
55288;SDS011;41154;45.394;5.734;2022-07-22T12:58:05;7.65;;;4.10;;
55288;SDS011;41154;45.394;5.734;2022-07-22T13:00:33;9.88;;;4.32;;
55288;SDS011;41154;45.394;5.734;2022-07-22T13:03:01;5.15;;;4.30;;
55288;SDS011;41154;45.394;5.734;2022-07-22T13:05:27;5.72;;;3.85;;
55288;SDS011;41154;45.394;5.734;2022-07-22T13:07:53;5.25;;;4.22;;
55288;SDS011;41154;45.394;5.734;2022-07-22T13:10:20;6.00;;;4.10;;
55288;SDS011;41154;45.394;5.734;2022-07-22T13:12:47;5.50;;;4.18;;
55288;SDS011;41154;45.394;5.734;2022-07-22T13:15:13;4.80;;;4.28;;
55288;SDS011;41154;45.394;5.734;2022-07-22T13:17:40;5.82;;;4.50;;
55288;SDS011;41154;45.394;5.734;2022-07-22T13:20:07;9.40;;;4.50;;
55288;SDS011;41154;45.394;5.734;2022-07-22T13:22:34;7.22;;;4.72;;
55288;SDS011;41154;45.394;5.734;2022-07-22T13:25:00;4.90;;;3.97;;
55288;SDS011;41154;45.394;5.734;2022-07-22T13:27:26;6.13;;;3.80;;
55288;SDS011;41154;45.394;5.734;2022-07-22T13:29:52;5.70;;;4.57;;
55288;SDS011;41154;45.394;5.734;2022-07-22T13:32:18;5.30;;;4.32;;
55288;SDS011;41154;45.394;5.734;2022-07-22T13:34:44;7.55;;;4.45;;
55288;SDS011;41154;45.394;5.734;2022-07-22T13:37:10;7.32;;;4.55;;
55288;SDS011;41154;45.394;5.734;2022-07-22T13:39:36;7.25;;;4.57;;
55288;SDS011;41154;45.394;5.734;2022-07-22T13:42:02;5.00;;;4.40;;
55288;SDS011;41154;45.394;5.734;2022-07-22T13:44:28;8.25;;;4.50;;
55288;SDS011;41154;45.394;5.734;2022-07-22T13:46:56;5.53;;;4.20;;
55288;SDS011;41154;45.394;5.734;2022-07-22T13:49:23;4.88;;;4.20;;
55288;SDS011;41154;45.394;5.734;2022-07-22T13:51:49;5.00;;;4.22;;
55288;SDS011;41154;45.394;5.734;2022-07-22T13:54:16;5.07;;;3.90;;
55288;SDS011;41154;45.394;5.734;2022-07-22T13:56:43;5.38;;;3.65;;
55288;SDS011;41154;45.394;5.734;2022-07-22T13:59:12;5.53;;;4.25;;
55288;SDS011;41154;45.394;5.734;2022-07-22T14:01:39;5.22;;;4.40;;
55288;SDS011;41154;45.394;5.734;2022-07-22T14:04:04;4.68;;;4.28;;
55288;SDS011;41154;45.394;5.734;2022-07-22T14:06:32;5.80;;;4.20;;
55288;SDS011;41154;45.394;5.734;2022-07-22T14:08:58;4.85;;;4.20;;
55288;SDS011;41154;45.394;5.734;2022-07-22T14:11:24;4.53;;;4.13;;
55288;SDS011;41154;45.394;5.734;2022-07-22T14:13:50;6.38;;;4.50;;
55288;SDS011;41154;45.394;5.734;2022-07-22T14:16:16;5.90;;;4.15;;
55288;SDS011;41154;45.394;5.734;2022-07-22T14:19:00;7.47;;;4.43;;
55288;SDS011;41154;45.394;5.734;2022-07-22T14:21:28;5.75;;;4.40;;
55288;SDS011;41154;45.394;5.734;2022-07-22T14:23:54;5.55;;;4.32;;
55288;SDS011;41154;45.394;5.734;2022-07-22T14:26:20;8.48;;;4.35;;
55288;SDS011;41154;45.394;5.734;2022-07-22T14:28:45;6.95;;;4.20;;
55288;SDS011;41154;45.394;5.734;2022-07-22T14:31:12;6.50;;;4.13;;
55288;SDS011;41154;45.394;5.734;2022-07-22T14:33:38;8.70;;;4.50;;
55288;SDS011;41154;45.394;5.734;2022-07-22T14:36:04;5.40;;;4.32;;
55288;SDS011;41154;45.394;5.734;2022-07-22T14:38:30;4.68;;;4.00;;
55288;SDS011;41154;45.394;5.734;2022-07-22T14:40:56;5.47;;;4.03;;
55288;SDS011;41154;45.394;5.734;2022-07-22T14:43:22;6.00;;;4.20;;
55288;SDS011;41154;45.394;5.734;2022-07-22T14:45:47;6.22;;;4.00;;
55288;SDS011;41154;45.394;5.734;2022-07-22T14:48:13;4.82;;;4.30;;
55288;SDS011;41154;45.394;5.734;2022-07-22T14:50:40;7.90;;;4.47;;
55288;SDS011;41154;45.394;5.734;2022-07-22T14:53:06;5.03;;;4.50;;
55288;SDS011;41154;45.394;5.734;2022-07-22T14:55:33;6.95;;;4.57;;
55288;SDS011;41154;45.394;5.734;2022-07-22T14:57:59;5.78;;;4.10;;
55288;SDS011;41154;45.394;5.734;2022-07-22T15:00:25;6.00;;;4.13;;
55288;SDS011;41154;45.394;5.734;2022-07-22T15:02:52;5.63;;;4.35;;
55288;SDS011;41154;45.394;5.734;2022-07-22T15:05:18;8.30;;;4.35;;
55288;SDS011;41154;45.394;5.734;2022-07-22T15:07:44;8.32;;;4.90;;
55288;SDS011;41154;45.394;5.734;2022-07-22T15:10:10;5.60;;;4.18;;
55288;SDS011;41154;45.394;5.734;2022-07-22T15:12:36;6.20;;;4.55;;
55288;SDS011;41154;45.394;5.734;2022-07-22T15:15:02;10.00;;;4.80;;
55288;SDS011;41154;45.394;5.734;2022-07-22T15:17:33;6.55;;;4.80;;
55288;SDS011;41154;45.394;5.734;2022-07-22T15:20:00;7.88;;;4.32;;
55288;SDS011;41154;45.394;5.734;2022-07-22T15:22:26;4.80;;;4.40;;
55288;SDS011;41154;45.394;5.734;2022-07-22T15:24:53;6.03;;;3.92;;